Time;durP1;ratioP1;P1;durP2;ratioP2;P2;SDS_P1;SDS_P2;PMS_P1;PMS_P2;Temp;Humidity;BMP_temperature;BMP_pressure;BME280_temperature;BME280_humidity;BME280_pressure;Samples;Min_cycle;Max_cycle;Signal;HPM_P1;HPM_P2
2022/11/28 00:02:24;;;;;;;14.05;8.40;;;;;;;6.49;100.00;100944.94;4888070;29;20092;-75
2022/11/28 00:04:51;;;;;;;13.02;7.65;;;;;;;6.53;100.00;100939.53;4888034;29;20037;-75
2022/11/28 00:07:16;;;;;;;14.43;8.07;;;;;;;6.53;100.00;100923.63;4890197;29;20041;-75
2022/11/28 00:09:42;;;;;;;14.98;9.05;;;;;;;6.51;100.00;100928.97;4891513;29;20063;-75
2022/11/28 00:12:07;;;;;;;14.95;8.25;;;;;;;6.51;100.00;100923.66;4891225;29;20044;-74
2022/11/28 00:14:33;;;;;;;15.82;7.47;;;;;;;6.54;100.00;100925.34;4891442;29;20071;-73
2022/11/28 00:16:58;;;;;;;13.23;8.15;;;;;;;6.57;100.00;100927.81;4891488;29;20033;-74
2022/11/28 00:19:23;;;;;;;16.25;8.43;;;;;;;6.63;100.00;100924.94;4891571;29;20040;-76
2022/11/28 00:21:49;;;;;;;14.82;7.72;;;;;;;6.62;100.00;100925.84;4891219;29;20715;-74
2022/11/28 00:24:14;;;;;;;17.02;8.48;;;;;;;6.61;100.00;100926.78;4891600;29;20770;-76
2022/11/28 00:26:41;;;;;;;13.50;6.93;;;;;;;6.60;100.00;100930.34;4891290;29;20600;-75
2022/11/28 00:29:07;;;;;;;16.77;8.40;;;;;;;6.61;100.00;100926.78;4890753;29;20091;-75
2022/11/28 00:31:40;;;;;;;18.05;8.45;;;;;;;6.60;100.00;100927.69;4890539;29;20047;-73
2022/11/28 00:34:07;;;;;;;15.95;8.05;;;;;;;6.65;100.00;100918.63;4890282;29;20044;-73
2022/11/28 00:36:32;;;;;;;15.38;7.75;;;;;;;6.66;100.00;100914.16;4890023;29;20056;-76
2022/11/28 00:38:58;;;;;;;15.27;8.57;;;;;;;6.65;100.00;100908.00;4890778;29;20029;-75
2022/11/28 00:41:27;;;;;;;17.35;8.15;;;;;;;6.65;100.00;100907.16;4890850;29;20462;-74
2022/11/28 00:43:53;;;;;;;14.32;7.47;;;;;;;6.63;100.00;100904.59;4891131;29;20480;-76
2022/11/28 00:46:20;;;;;;;17.95;8.18;;;;;;;6.62;100.00;100904.63;4891130;29;20037;-75
2022/11/28 00:48:46;;;;;;;15.73;8.77;;;;;;;6.66;100.00;100901.78;4890784;29;20044;-74
2022/11/28 00:51:23;;;;;;;16.67;8.70;;;;;;;6.69;100.00;100896.34;4889500;29;20056;-74
2022/11/28 00:53:51;;;;;;;15.98;8.77;;;;;;;6.67;100.00;100898.19;4890671;29;20041;-74
2022/11/28 00:56:19;;;;;;;23.15;8.70;;;;;;;6.69;100.00;100895.50;4890587;29;20048;-74
2022/11/28 00:58:48;;;;;;;16.17;8.73;;;;;;;6.64;100.00;100894.84;4890510;29;20040;-74
2022/11/28 01:01:20;;;;;;;19.55;8.63;;;;;;;6.72;100.00;100905.94;4877671;29;20529;-75
2022/11/28 01:03:46;;;;;;;;;;;;;;;6.63;100.00;100895.78;4889133;29;20052;-75
2022/11/28 01:06:12;;;;;;;19.05;8.55;;;;;;;6.70;100.00;100881.31;4890197;29;19926;-74
2022/11/28 01:08:37;;;;;;;14.85;8.50;;;;;;;6.70;100.00;100886.59;4888699;29;20063;-74
2022/11/28 01:11:09;;;;;;;22.17;9.77;;;;;;;6.69;100.00;100877.78;4890030;29;20067;-75
2022/11/28 01:13:34;;;;;;;20.77;9.80;;;;;;;6.73;100.00;100876.72;4877423;29;20060;-74
2022/11/28 01:16:00;;;;;;;16.33;8.70;;;;;;;6.74;100.00;100878.44;4889627;29;20052;-75
2022/11/28 01:18:25;;;;;;;20.95;8.60;;;;;;;6.75;100.00;100888.09;4876795;29;20040;-74
2022/11/28 01:20:51;;;;;;;15.68;8.73;;;;;;;6.75;100.00;100879.28;4890125;29;20044;-75
2022/11/28 01:23:18;;;;;;;16.85;8.60;;;;;;;6.78;100.00;100880.94;4890158;29;20040;-74
2022/11/28 01:25:43;;;;;;;16.65;8.40;;;;;;;6.73;100.00;100881.19;4890505;29;20040;-74
2022/11/28 01:28:09;;;;;;;23.20;9.30;;;;;;;6.80;100.00;100885.25;4890458;29;20049;-75
2022/11/28 01:30:34;;;;;;;13.93;8.30;;;;;;;6.87;100.00;100876.06;4876892;29;20059;-76
2022/11/28 01:33:00;;;;;;;18.95;8.85;;;;;;;6.89;100.00;100865.41;4889620;29;20040;-74
2022/11/28 01:35:25;;;;;;;17.00;8.07;;;;;;;6.90;100.00;100875.94;4887937;29;20040;-75
2022/11/28 01:37:50;;;;;;;14.68;8.48;;;;;;;6.90;100.00;100872.41;4889429;29;20040;-74
2022/11/28 01:40:16;;;;;;;13.15;9.27;;;;;;;6.86;100.00;100874.34;4889155;29;20406;-75
2022/11/28 01:42:41;;;;;;;16.33;8.90;;;;;;;6.88;100.00;100876.94;4889611;29;20044;-74
2022/11/28 01:45:12;;;;;;;13.45;8.60;;;;;;;6.88;100.00;100871.66;4889413;29;20405;-76
2022/11/28 01:47:38;;;;;;;16.42;9.13;;;;;;;6.90;100.00;100867.97;4876986;29;20115;-75
2022/11/28 01:50:05;;;;;;;17.50;8.88;;;;;;;6.89;100.00;100874.22;4888208;29;20041;-74
2022/11/28 01:52:31;;;;;;;17.45;8.75;;;;;;;6.88;100.00;100864.53;4889499;29;20051;-74
2022/11/28 01:54:59;;;;;;;15.30;7.43;;;;;;;6.83;100.00;100866.56;4889389;29;20091;-75
2022/11/28 01:57:26;;;;;;;18.33;8.98;;;;;;;6.85;100.00;100872.63;4889200;29;20135;-75
2022/11/28 02:00:08;;;;;;;22.52;10.57;;;;;;;6.85;100.00;100862.03;4887795;29;20055;-76
2022/11/28 02:03:00;;;;;;;18.65;9.13;;;;;;;6.86;100.00;100869.03;4889158;29;20147;-77
2022/11/28 02:05:26;;;;;;;20.55;9.43;;;;;;;6.84;100.00;100868.28;4889254;29;20063;-76
2022/11/28 02:07:51;;;;;;;13.82;8.45;;;;;;;6.83;100.00;100871.84;4888858;29;20048;-75
2022/11/28 02:10:23;;;;;;;15.80;9.43;;;;;;;6.87;100.00;100862.81;4888756;29;20135;-77
2022/11/28 02:13:15;;;;;;;14.32;8.45;;;;;;;6.87;100.00;100862.81;4889440;29;20564;-75
2022/11/28 02:16:10;;;;;;;20.70;10.25;;;;;;;6.85;100.00;100863.81;4889431;29;20688;-74
2022/11/28 02:19:05;;;;;;;16.05;8.88;;;;;;;6.84;100.00;100859.47;4889387;29;20147;-76
2022/11/28 02:21:41;;;;;;;14.55;8.60;;;;;;;6.89;100.00;100854.81;4889780;29;20051;-77
2022/11/28 02:24:19;;;;;;;19.00;9.57;;;;;;;6.92;100.00;100847.53;4890237;29;20082;-77
2022/11/28 02:27:27;;;;;;;21.20;10.05;;;;;;;6.91;100.00;100850.28;4890347;29;20051;-76
2022/11/28 02:30:07;;;;;;;16.05;9.15;;;;;;;6.93;100.00;100851.94;4831480;29;20125;-77
2022/11/28 02:33:00;;;;;;;17.48;8.57;;;;;;;6.89;100.00;100850.34;4832594;29;20060;-76
2022/11/28 02:35:26;;;;;;;17.48;8.38;;;;;;;6.90;100.00;100854.72;4816604;29;20795;-77
2022/11/28 02:38:03;;;;;;;15.05;8.98;;;;;;;6.86;100.00;100852.28;4832252;29;20146;-77
2022/11/28 02:40:32;;;;;;;22.00;9.65;;;;;;;6.86;100.00;100847.84;4831809;29;20094;-75
2022/11/28 02:43:13;;;;;;;17.98;9.38;;;;;;;6.88;100.00;100846.00;4815590;29;20049;-76
2022/11/28 02:46:11;;;;;;;23.17;9.65;;;;;;;6.83;100.00;100841.81;4831534;29;20049;-75
2022/11/28 02:48:45;;;;;;;15.23;8.82;;;;;;;6.85;100.00;100848.78;4822982;29;20085;-77
2022/11/28 02:51:17;;;;;;;18.50;9.07;;;;;;;6.84;100.00;100849.72;4815933;29;20056;-75
2022/11/28 02:53:44;;;;;;;20.05;9.10;;;;;;;6.82;100.00;100843.59;4815181;29;20058;-75
2022/11/28 02:56:11;;;;;;;17.95;9.43;;;;;;;6.82;100.00;100843.59;4815213;29;20101;-75
2022/11/28 02:58:37;;;;;;;15.75;8.98;;;;;;;6.84;100.00;100833.81;4830835;29;20046;-77
2022/11/28 03:01:03;;;;;;;16.60;8.52;;;;;;;6.87;100.00;100843.41;4831259;29;20057;-76
2022/11/28 03:03:54;;;;;;;14.68;8.13;;;;;;;6.90;100.00;100836.16;4831691;29;20088;-77
2022/11/28 03:06:37;;;;;;;14.02;8.77;;;;;;;6.88;100.00;100835.38;4848289;29;20056;-76
2022/11/28 03:09:23;;;;;;;19.13;9.70;;;;;;;6.87;100.00;100831.00;4887458;29;20048;-75
2022/11/28 03:12:20;;;;;;;16.58;9.25;;;;;;;6.85;100.00;100832.88;4889278;29;20055;-75
2022/11/28 03:14:52;;;;;;;22.48;10.27;;;;;;;6.86;100.00;100842.53;4889449;29;20040;-77
2022/11/28 03:17:40;;;;;;;17.30;9.63;;;;;;;6.85;100.00;100839.97;4888917;29;20052;-76
2022/11/28 03:20:19;;;;;;;22.27;10.93;;;;;;;6.86;100.00;100837.25;4864889;29;20048;-76
2022/11/28 03:22:54;;;;;;;22.27;11.82;;;;;;;6.85;100.00;100835.53;4888097;29;20053;-76
2022/11/28 03:25:26;;;;;;;27.58;12.35;;;;;;;6.83;100.00;100834.75;4875545;29;20071;-76
2022/11/28 03:28:07;;;;;;;26.52;14.02;;;;;;;6.79;100.00;100838.47;4888877;29;20047;-76
2022/11/28 03:30:49;;;;;;;27.17;13.20;;;;;;;6.81;100.00;100831.31;4883877;29;20045;-76
2022/11/28 03:33:16;;;;;;;24.13;13.52;;;;;;;6.80;100.00;100836.69;4869800;29;20041;-77
2022/11/28 03:35:57;;;;;;;25.80;13.05;;;;;;;6.78;100.00;100836.75;4887645;29;20749;-76
2022/11/28 03:38:46;;;;;;;24.23;12.18;;;;;;;6.81;100.00;100833.94;4888754;29;20055;-75
2022/11/28 03:41:26;;;;;;;26.75;12.52;;;;;;;6.77;100.00;100826.22;4888915;29;20045;-76
2022/11/28 03:43:56;;;;;;;27.83;12.60;;;;;;;6.75;100.00;100842.19;4887682;29;20051;-75
2022/11/28 03:46:25;;;;;;;26.50;13.65;;;;;;;6.75;100.00;100832.47;4889227;29;20044;-76
2022/11/28 03:48:55;;;;;;;27.48;13.85;;;;;;;6.73;100.00;100833.47;4889253;29;20045;-76
2022/11/28 03:51:26;;;;;;;24.13;13.52;;;;;;;6.70;100.00;100839.75;4881450;29;20045;-75
2022/11/28 03:54:12;;;;;;;26.45;14.10;;;;;;;6.74;100.00;100835.19;4882908;29;20701;-77
2022/11/28 03:56:54;;;;;;;28.05;13.25;;;;;;;6.70;100.00;100836.25;4890269;29;20076;-75
2022/11/28 03:59:33;;;;;;;27.33;13.57;;;;;;;6.73;100.00;100844.06;4885804;29;20104;-76
2022/11/28 04:02:11;;;;;;;28.13;14.02;;;;;;;6.73;100.00;100836.13;4878046;29;20534;-76
2022/11/28 04:04:43;;;;;;;25.83;13.93;;;;;;;6.70;100.00;100826.50;4885676;29;20040;-75
2022/11/28 04:07:33;;;;;;;33.22;14.95;;;;;;;6.72;100.00;100837.88;4888245;29;20041;-76
2022/11/28 04:10:01;;;;;;;31.75;15.57;;;;;;;6.70;100.00;100830.97;4888740;29;20084;-76
2022/11/28 04:12:47;;;;;;;27.08;13.93;;;;;;;6.70;100.00;100839.75;4886974;29;20047;-75
2022/11/28 04:15:23;;;;;;;26.67;14.55;;;;;;;6.69;100.00;100834.53;4881831;29;20120;-74
2022/11/28 04:17:57;;;;;;;28.98;16.08;;;;;;;6.73;100.00;100839.63;4885033;29;20055;-75
2022/11/28 04:20:57;;;;;;;31.80;14.32;;;;;;;6.72;100.00;100839.69;4889111;29;20056;-76
2022/11/28 04:23:25;;;;;;;24.08;12.25;;;;;;;6.71;100.00;100837.97;4888711;29;20100;-76
2022/11/28 04:25:56;;;;;;;29.42;14.18;;;;;;;6.72;100.00;100840.53;4877967;29;20053;-76
2022/11/28 04:28:26;;;;;;;29.55;13.82;;;;;;;6.72;100.00;100845.84;4887525;29;20044;-76
2022/11/28 04:30:55;;;;;;;34.38;13.90;;;;;;;6.71;100.00;100837.97;4889188;29;20096;-76
2022/11/28 04:33:24;;;;;;;25.23;12.85;;;;;;;6.75;100.00;100843.06;4888878;29;20040;-76
2022/11/28 04:35:52;;;;;;;29.15;14.25;;;;;;;6.73;100.00;100839.63;4889173;29;20053;-76
2022/11/28 04:38:19;;;;;;;29.20;13.02;;;;;;;6.70;100.00;100836.25;4888955;29;20051;-76
2022/11/28 04:41:09;;;;;;;27.38;13.23;;;;;;;6.73;100.00;100830.81;4889509;29;20046;-76
2022/11/28 04:43:40;;;;;;;27.95;13.90;;;;;;;6.75;100.00;100837.75;4888713;29;20052;-77
2022/11/28 04:46:11;;;;;;;30.45;13.93;;;;;;;6.74;100.00;100838.69;4888532;29;20131;-76
2022/11/28 04:48:37;;;;;;;26.77;13.02;;;;;;;6.74;100.00;100841.34;4888584;29;20052;-76
2022/11/28 04:51:20;;;;;;;27.63;12.35;;;;;;;6.75;100.00;100840.41;4885219;29;20048;-75
2022/11/28 04:53:57;;;;;;;26.70;12.80;;;;;;;6.77;100.00;100839.47;4892446;29;20745;-76
2022/11/28 04:56:43;;;;;;;31.80;12.88;;;;;;;6.79;100.00;100838.47;4893426;29;20056;-76
2022/11/28 04:59:11;;;;;;;27.85;12.55;;;;;;;6.79;100.00;100840.28;4879115;29;20093;-76
2022/11/28 05:01:39;;;;;;;31.10;13.75;;;;;;;6.77;100.00;100842.97;4894709;29;20859;-76
2022/11/28 05:04:05;;;;;;;27.13;13.40;;;;;;;6.77;100.00;100835.03;4891730;29;20059;-79
2022/11/28 05:06:33;;;;;;;35.45;14.60;;;;;;;6.75;100.00;100839.56;4891918;29;20885;-76
2022/11/28 05:08:58;;;;;;;31.38;14.70;;;;;;;6.75;100.00;100834.25;4891524;29;20467;-76
2022/11/28 05:11:25;;;;;;;34.53;13.93;;;;;;;6.78;100.00;100843.81;4879797;29;20078;-76
2022/11/28 05:13:50;;;;;;;29.95;15.32;;;;;;;6.80;100.00;100840.19;4891976;29;20143;-76
2022/11/28 05:16:16;;;;;;;32.25;15.32;;;;;;;6.77;100.00;100839.47;4892081;29;20100;-76
2022/11/28 05:18:42;;;;;;;29.02;13.95;;;;;;;6.78;100.00;100841.19;4892511;29;20115;-76
2022/11/28 05:21:09;;;;;;;31.50;14.98;;;;;;;6.76;100.00;100843.91;4892300;29;20123;-76
2022/11/28 05:23:39;;;;;;;35.60;15.98;;;;;;;6.76;100.00;100843.91;4892374;29;20055;-75
2022/11/28 05:26:19;;;;;;;32.88;17.00;;;;;;;6.74;100.00;100846.66;4891656;29;20060;-76
2022/11/28 05:28:47;;;;;;;29.10;14.73;;;;;;;6.75;100.00;100844.84;4891972;29;20096;-77
2022/11/28 05:31:13;;;;;;;40.00;15.82;;;;;;;6.73;100.00;100850.22;4892081;29;20045;-76
2022/11/28 05:33:38;;;;;;;38.60;16.15;;;;;;;6.77;100.00;100856.22;4889635;29;20047;-76
2022/11/28 05:36:06;;;;;;;32.30;16.30;;;;;;;6.75;100.00;100852.81;4891121;29;20024;-77
2022/11/28 05:38:33;;;;;;;35.22;15.80;;;;;;;6.80;100.00;100850.78;4890530;29;20512;-76
2022/11/28 05:41:01;;;;;;;28.70;15.43;;;;;;;6.77;100.00;100850.94;4890887;29;20037;-76
2022/11/28 05:43:27;;;;;;;30.02;15.23;;;;;;;6.81;100.00;100851.66;4889923;29;20059;-76
2022/11/28 05:45:53;;;;;;;35.33;16.88;;;;;;;6.80;100.00;100858.75;4890752;29;20032;-76
2022/11/28 05:48:18;;;;;;;35.55;16.50;;;;;;;6.79;100.00;100856.16;4892817;29;20458;-77
2022/11/28 05:50:44;;;;;;;34.50;15.18;;;;;;;6.79;100.00;100856.16;4893401;29;20052;-76
2022/11/28 05:53:10;;;;;;;42.67;16.02;;;;;;;6.86;100.00;100860.25;4887092;29;20038;-76
2022/11/28 05:55:39;;;;;;;42.47;16.30;;;;;;;6.81;100.00;100865.75;4885397;29;20033;-77
2022/11/28 05:58:05;;;;;;;34.13;16.75;;;;;;;6.84;100.00;100867.41;4888135;29;20132;-76
2022/11/28 06:00:31;;;;;;;31.85;16.42;;;;;;;6.87;100.00;100860.16;4890334;29;20130;-76
2022/11/28 06:02:57;;;;;;;40.03;17.75;;;;;;;6.84;100.00;100867.41;4891761;29;20136;-76
2022/11/28 06:05:23;;;;;;;39.05;18.67;;;;;;;6.84;100.00;100860.31;4891607;29;20044;-76
2022/11/28 06:07:48;;;;;;;40.25;18.70;;;;;;;6.85;100.00;100861.19;4891468;29;20115;-76
2022/11/28 06:10:14;;;;;;;34.10;15.65;;;;;;;6.86;100.00;100857.59;4891306;29;20060;-76
2022/11/28 06:12:39;;;;;;;37.63;17.30;;;;;;;6.89;100.00;100866.25;4891462;29;20047;-76
2022/11/28 06:15:05;;;;;;;30.40;15.77;;;;;;;6.87;100.00;100864.59;4900077;29;20044;-76
2022/11/28 06:17:31;;;;;;;38.90;17.13;;;;;;;6.85;100.00;100862.03;4889426;29;20067;-75
2022/11/28 06:19:56;;;;;;;37.17;17.42;;;;;;;6.84;100.00;100860.31;4880751;29;20491;-75
2022/11/28 06:22:22;;;;;;;37.25;18.25;;;;;;;6.83;100.00;100858.59;4891124;29;20055;-75
2022/11/28 06:24:47;;;;;;;35.63;16.40;;;;;;;6.87;100.00;100861.94;4894536;29;20092;-76
2022/11/28 06:27:13;;;;;;;35.50;17.27;;;;;;;6.88;100.00;100863.69;4892721;29;20687;-76
2022/11/28 06:29:38;;;;;;;36.33;17.42;;;;;;;6.86;100.00;100862.88;4880309;29;20036;-77
2022/11/28 06:32:03;;;;;;;37.33;17.05;;;;;;;6.90;100.00;100865.31;4889340;29;20779;-76
2022/11/28 06:34:29;;;;;;;32.78;16.70;;;;;;;6.88;100.00;100864.53;4884665;29;20057;-75
2022/11/28 06:36:54;;;;;;;40.40;18.00;;;;;;;6.90;100.00;100870.63;4888836;29;20056;-75
2022/11/28 06:39:20;;;;;;;33.67;16.42;;;;;;;6.90;100.00;100862.66;4888496;29;20048;-75
2022/11/28 06:41:45;;;;;;;35.13;17.55;;;;;;;6.90;100.00;100865.31;4877149;29;20052;-75
2022/11/28 06:44:13;;;;;;;34.67;17.98;;;;;;;6.97;100.00;100868.53;4890367;29;20108;-75
2022/11/28 06:46:39;;;;;;;36.03;17.70;;;;;;;6.90;100.00;100872.41;4890683;29;20040;-76
2022/11/28 06:49:05;;;;;;;47.50;20.15;;;;;;;6.96;100.00;100862.38;4888572;29;20040;-76
2022/11/28 06:51:30;;;;;;;35.95;17.08;;;;;;;6.91;100.00;100863.53;4881657;29;20057;-75
2022/11/28 06:53:56;;;;;;;40.13;18.15;;;;;;;6.90;100.00;100870.63;4899330;29;20044;-75
2022/11/28 06:56:21;;;;;;;36.70;17.90;;;;;;;6.95;100.00;100870.41;4891967;29;20051;-75
2022/11/28 06:58:52;;;;;;;37.88;17.27;;;;;;;6.92;100.00;100874.03;4888328;29;20119;-75
2022/11/28 07:01:19;;;;;;;41.53;18.45;;;;;;;6.97;100.00;100868.53;4889579;29;20044;-75
2022/11/28 07:03:46;;;;;;;35.72;17.42;;;;;;;6.93;100.00;100875.78;4889544;29;20052;-76
2022/11/28 07:06:12;;;;;;;39.60;18.58;;;;;;;6.96;100.00;100872.13;4887977;29;20032;-76
2022/11/28 07:08:38;;;;;;;42.80;18.90;;;;;;;6.98;100.00;100870.28;4889385;29;20075;-76
2022/11/28 07:11:23;;;;;;;35.83;18.73;;;;;;;6.97;100.00;100877.34;4903449;29;20044;-76
2022/11/28 07:13:49;;;;;;;39.90;18.90;;;;;;;6.94;100.00;100879.28;4889061;29;20143;-76
2022/11/28 07:16:21;;;;;;;43.65;20.90;;;;;;;6.98;100.00;100887.03;4876714;29;20037;-76
2022/11/28 07:18:46;;;;;;;50.90;20.48;;;;;;;6.94;100.00;100887.25;4889651;29;20063;-76
2022/11/28 07:21:13;;;;;;;45.33;20.75;;;;;;;6.93;100.00;100883.75;4887282;29;20040;-75
2022/11/28 07:23:39;;;;;;;40.47;18.80;;;;;;;6.93;100.00;100882.88;4889632;29;20044;-75
2022/11/28 07:26:06;;;;;;;47.75;20.15;;;;;;;6.93;100.00;100883.75;4876660;29;20145;-75
2022/11/28 07:28:33;;;;;;;42.25;20.83;;;;;;;6.95;100.00;100886.31;4886829;29;20045;-77
2022/11/28 07:31:05;;;;;;;44.70;20.23;;;;;;;6.96;100.00;100893.31;4888331;29;20045;-75
2022/11/28 07:33:31;;;;;;;38.65;18.70;;;;;;;6.98;100.00;100892.34;4884644;29;20048;-75
2022/11/28 07:36:01;;;;;;;51.72;20.73;;;;;;;6.96;100.00;100899.47;4888085;29;20068;-76
2022/11/28 07:38:26;;;;;;;46.42;19.88;;;;;;;6.99;100.00;100896.69;4888675;29;20048;-75
2022/11/28 07:40:52;;;;;;;48.53;20.30;;;;;;;6.94;100.00;100904.00;4888372;29;20111;-76
2022/11/28 07:43:17;;;;;;;43.80;19.13;;;;;;;6.94;100.00;100897.84;4888454;29;20044;-75
2022/11/28 07:45:43;;;;;;;45.45;22.05;;;;;;;6.96;100.00;100898.63;4887341;29;20043;-75
2022/11/28 07:48:09;;;;;;;43.90;19.33;;;;;;;6.97;100.00;100901.19;4888870;29;20044;-76
2022/11/28 07:50:36;;;;;;;48.03;21.38;;;;;;;7.00;100.00;100898.41;4888714;29;20084;-75
2022/11/28 07:53:02;;;;;;;43.88;20.67;;;;;;;7.00;100.00;100900.22;4889152;29;20394;-75
2022/11/28 07:55:27;;;;;;;38.95;18.80;;;;;;;7.02;100.00;100895.69;4886236;29;20048;-74
2022/11/28 07:57:53;;;;;;;40.30;19.13;;;;;;;7.03;100.00;100897.41;4872228;29;20037;-75
2022/11/28 08:00:19;;;;;;;45.22;18.90;;;;;;;7.02;100.00;100893.03;4887285;29;20061;-75
2022/11/28 08:02:44;;;;;;;43.92;19.98;;;;;;;7.07;100.00;100896.31;4886228;29;20048;-76
2022/11/28 08:05:11;;;;;;;37.80;18.67;;;;;;;7.07;100.00;100898.09;4886393;29;20120;-75
2022/11/28 08:07:37;;;;;;;42.22;20.50;;;;;;;7.06;100.00;100901.69;4887635;29;20127;-74
2022/11/28 08:10:05;;;;;;;45.75;19.83;;;;;;;7.12;100.00;100909.34;4887723;29;20534;-74
2022/11/28 08:12:30;;;;;;;45.42;18.90;;;;;;;7.08;100.00;100899.81;4884775;29;20045;-74
2022/11/28 08:14:55;;;;;;;44.20;19.80;;;;;;;7.10;100.00;100900.63;4877923;29;20045;-76
2022/11/28 08:17:21;;;;;;;46.17;20.17;;;;;;;7.09;100.00;100901.56;4887890;29;20073;-76
2022/11/28 08:19:46;;;;;;;46.35;20.17;;;;;;;7.19;100.00;100911.66;4887613;29;20040;-77
2022/11/28 08:22:12;;;;;;;41.22;19.40;;;;;;;7.18;100.00;100914.38;4888258;29;20036;-77
2022/11/28 08:24:37;;;;;;;35.38;18.10;;;;;;;7.14;100.00;100918.13;4882144;29;20040;-76
2022/11/28 08:27:06;;;;;;;43.65;19.48;;;;;;;7.17;100.00;100917.94;4890713;29;20070;-75
2022/11/28 08:29:31;;;;;;;42.20;18.60;;;;;;;7.15;100.00;100914.53;4892633;29;20083;-76
2022/11/28 08:31:57;;;;;;;40.72;18.88;;;;;;;7.23;100.00;100912.38;4891556;29;20490;-75
2022/11/28 08:34:22;;;;;;;41.20;19.65;;;;;;;7.27;100.00;100913.91;4887650;29;20039;-75
2022/11/28 08:36:49;;;;;;;39.45;19.90;;;;;;;7.19;100.00;100916.97;4883132;29;20055;-75
2022/11/28 08:39:14;;;;;;;42.42;19.58;;;;;;;7.23;100.00;100918.53;4890931;29;20115;-75
2022/11/28 08:41:40;;;;;;;37.10;18.95;;;;;;;7.22;100.00;100918.59;4891807;29;20045;-76
2022/11/28 08:44:05;;;;;;;45.78;19.90;;;;;;;7.23;100.00;100915.03;4891911;29;20037;-76
2022/11/28 08:46:31;;;;;;;40.10;19.50;;;;;;;7.29;100.00;100914.72;4891587;29;20557;-76
2022/11/28 08:48:57;;;;;;;44.60;20.60;;;;;;;7.35;100.00;100917.06;4891544;29;20040;-75
2022/11/28 08:51:23;;;;;;;45.92;19.15;;;;;;;7.33;100.00;100918.06;4890831;29;20120;-76
2022/11/28 08:53:49;;;;;;;37.38;18.65;;;;;;;7.31;100.00;100912.84;4890590;29;20553;-76
2022/11/28 08:56:15;;;;;;;37.50;19.80;;;;;;;7.38;100.00;100924.00;4889563;29;20042;-74
2022/11/28 08:58:40;;;;;;;42.80;19.67;;;;;;;7.42;100.00;100925.56;4890177;29;20044;-75
2022/11/28 09:01:21;;;;;;;39.13;18.38;;;;;;;7.33;100.00;100921.59;4891607;29;20044;-76
2022/11/28 09:03:47;;;;;;;44.00;18.98;;;;;;;7.34;100.00;100922.47;4892400;29;20494;-76
2022/11/28 09:06:15;;;;;;;38.72;20.58;;;;;;;7.32;100.00;100924.31;4890788;29;20421;-75
2022/11/28 09:08:41;;;;;;;40.20;19.58;;;;;;;7.38;100.00;100930.19;4890936;29;20447;-76
2022/11/28 09:11:13;;;;;;;40.22;20.85;;;;;;;7.42;100.00;100926.44;4891410;29;20041;-76
2022/11/28 09:13:38;;;;;;;42.75;19.23;;;;;;;7.43;100.00;100932.59;4890513;29;20124;-75
2022/11/28 09:16:04;;;;;;;41.15;20.10;;;;;;;7.44;100.00;100935.19;4890495;29;20048;-75
2022/11/28 09:18:30;;;;;;;41.22;18.77;;;;;;;7.38;100.00;100934.59;4890898;29;20052;-75
2022/11/28 09:20:57;;;;;;;35.78;18.98;;;;;;;7.29;100.00;100940.38;4878480;29;20045;-76
2022/11/28 09:23:22;;;;;;;38.80;18.95;;;;;;;7.43;100.00;100937.91;4888822;29;20041;-76
2022/11/28 09:25:48;;;;;;;38.45;17.90;;;;;;;7.39;100.00;100939.88;4890277;29;20044;-75
2022/11/28 09:28:13;;;;;;;39.42;18.05;;;;;;;7.40;100.00;100941.56;4891361;29;20044;-75
2022/11/28 09:30:39;;;;;;;38.15;18.35;;;;;;;7.44;100.00;100937.84;4890861;29;20051;-76
2022/11/28 09:33:05;;;;;;;37.75;16.90;;;;;;;7.43;100.00;100940.56;4890147;29;20037;-75
2022/11/28 09:35:31;;;;;;;32.92;17.17;;;;;;;7.50;100.00;100945.50;4889502;29;20521;-74
2022/11/28 09:37:56;;;;;;;35.38;17.77;;;;;;;7.50;100.00;100942.84;4889472;29;20048;-76
2022/11/28 09:40:36;;;;;;;36.25;15.85;;;;;;;7.52;100.00;100945.41;4888515;29;20044;-75
2022/11/28 09:43:10;;;;;;;33.60;15.20;;;;;;;7.57;100.00;100950.50;4890073;29;20041;-74
2022/11/28 09:45:36;;;;;;;29.30;15.95;;;;;;;7.61;100.00;100952.06;4889141;29;20044;-76
2022/11/28 09:48:22;;;;;;;47.42;16.70;;;;;;;7.60;100.00;100947.72;4890753;29;20084;-75
2022/11/28 09:50:53;;;;;;;32.58;14.88;;;;;;;7.68;100.00;100946.41;4892317;29;20623;-76
2022/11/28 09:53:40;;;;;;;31.83;15.57;;;;;;;7.75;100.00;100950.44;4891929;29;20047;-76
2022/11/28 09:56:15;;;;;;;29.00;15.00;;;;;;;7.77;100.00;100948.56;4891973;29;20040;-77
2022/11/28 09:58:54;;;;;;;26.70;14.60;;;;;;;7.83;100.00;100955.41;4890993;29;20037;-76
2022/11/28 10:01:33;;;;;;;32.55;14.80;;;;;;;7.94;100.00;100952.19;4888609;29;20123;-76
2022/11/28 10:04:08;;;;;;;26.67;13.27;;;;;;;7.91;100.00;100955.00;4891325;29;20048;-76
2022/11/28 10:06:47;;;;;;;24.45;13.23;;;;;;;7.89;100.00;100954.22;4876905;29;20044;-76
2022/11/28 10:09:42;;;;;;;26.65;14.38;;;;;;;7.90;100.00;100959.44;4891016;29;20058;-76
2022/11/28 10:12:20;;;;;;;26.42;14.50;;;;;;;7.82;100.00;100963.41;4891277;29;20159;-76
2022/11/28 10:14:52;;;;;;;31.63;13.52;;;;;;;7.86;100.00;100955.22;4891632;29;20191;-76
2022/11/28 10:17:38;;;;;;;27.88;14.52;;;;;;;7.95;100.00;100956.56;4891692;29;20044;-76
2022/11/28 10:20:11;;;;;;;27.73;13.15;;;;;;;7.85;100.00;100965.94;4891342;29;20045;-75
2022/11/28 10:22:49;;;;;;;29.27;13.68;;;;;;;7.87;100.00;100962.25;4879448;29;20064;-76
2022/11/28 10:25:37;;;;;;;26.35;13.25;;;;;;;7.86;100.00;100951.72;4880646;29;20063;-76
2022/11/28 10:28:05;;;;;;;26.45;13.15;;;;;;;7.97;100.00;100955.53;4893177;29;20041;-76
2022/11/28 10:30:37;;;;;;;28.65;14.90;;;;;;;8.09;100.00;100955.88;4881737;29;20048;-75
2022/11/28 10:33:24;;;;;;;26.10;13.98;;;;;;;8.10;100.00;100960.25;4893427;29;20048;-76
2022/11/28 10:35:54;;;;;;;24.48;13.60;;;;;;;8.20;100.00;100951.72;4893072;29;20044;-75
2022/11/28 10:38:24;;;;;;;21.70;11.82;;;;;;;8.18;100.00;100955.38;4890495;29;20315;-75
2022/11/28 10:41:24;;;;;;;25.13;12.70;;;;;;;8.14;100.00;100954.69;4890607;29;20052;-76
2022/11/28 10:43:58;;;;;;;25.90;13.70;;;;;;;8.04;100.00;100954.31;4891241;29;20051;-76
2022/11/28 10:46:41;;;;;;;26.90;13.48;;;;;;;8.08;100.00;100962.94;4889939;29;20152;-75
2022/11/28 10:49:16;;;;;;;26.30;12.75;;;;;;;8.05;100.00;100960.47;4890441;29;20048;-75
2022/11/28 10:52:11;;;;;;;25.27;14.30;;;;;;;8.10;100.00;100961.09;4889854;29;20059;-76
2022/11/28 10:54:51;;;;;;;27.50;13.35;;;;;;;8.26;100.00;100951.38;4888590;29;20076;-75
2022/11/28 10:57:30;;;;;;;24.73;12.27;;;;;;;8.33;100.00;100954.56;4891582;29;20797;-75
2022/11/28 11:00:08;;;;;;;22.30;12.82;;;;;;;8.17;100.00;100946.53;4891610;29;20581;-76
2022/11/28 11:02:51;;;;;;;27.58;13.50;;;;;;;8.32;100.00;100950.19;4887734;29;20512;-75
2022/11/28 11:05:20;;;;;;;22.42;12.25;;;;;;;8.30;100.00;100949.44;4891025;29;20123;-76
2022/11/28 11:07:55;;;;;;;20.65;12.85;;;;;;;8.29;100.00;100947.72;4889921;29;20048;-76
2022/11/28 11:10:41;;;;;;;22.13;13.32;;;;;;;8.30;100.00;100952.09;4888355;29;20059;-76
2022/11/28 11:13:30;;;;;;;21.55;12.25;;;;;;;8.41;100.00;100951.56;4889948;29;20040;-76
2022/11/28 11:16:06;;;;;;;25.20;13.02;;;;;;;8.39;100.00;100950.78;4890453;29;20045;-76
2022/11/28 11:18:53;;;;;;;23.20;13.02;;;;;;;8.40;100.00;100947.19;4890414;29;20084;-75
2022/11/28 11:21:23;;;;;;;23.20;13.05;;;;;;;8.42;100.00;100940.00;4888436;29;20052;-76
2022/11/28 11:24:11;;;;;;;26.80;13.57;;;;;;;8.40;100.00;100942.72;4888693;29;20044;-75
2022/11/28 11:26:39;;;;;;;23.83;12.40;;;;;;;8.50;100.00;100937.78;4889676;29;20078;-76
2022/11/28 11:29:05;;;;;;;24.05;13.25;;;;;;;8.46;100.00;100941.56;4890478;29;20049;-76
2022/11/28 11:31:40;;;;;;;24.08;12.38;;;;;;;8.43;100.00;100944.34;4888051;29;20074;-76